Mariner Of The Seas — C6FV9 — position and weather

sailwx.info

Track history (hours):
 
Tides and Currents Weather Stations Pressure Air Temp Water Temp Dewpoint Dewpoint Depression Visibility Wind Speed Wind Dir Waves Ship Positions

Mariner Of The Seas

Operator: Royal Caribbean Cruises Ltd

Last reported at 2017-Aug-24 00:57 UTC. Time now 2017-Aug-24 01:11 UTC.
Position N 31°25' E 121°30'.

Type: Passenger vessel. MMSI: 311493000.

Date/timePositionNaut miles runAvg speedWind from/ knotsBaromVisibWave heightAir tempDewpointWater temp
2017-Aug-24 00:57N 31°25' E 121°30'0 0.0
2017-Aug-24 00:27N 31°25' E 121°30'0 0.0
2017-Aug-23 23:57N 31°25' E 121°30'0 0.0
2017-Aug-23 23:21N 31°25' E 121°30'0 0.0
2017-Aug-23 21:33N 31°25' E 121°30'0 0.0
2017-Aug-23 21:15N 31°25' E 121°30'0 0.0
2017-Aug-23 20:57N 31°25' E 121°30'0 0.0
2017-Aug-23 20:27N 31°25' E 121°30'0 0.0
2017-Aug-23 19:57N 31°25' E 121°30'0 0.0
2017-Aug-23 19:15N 31°25' E 121°30'0 0.0
2017-Aug-23 18:57N 31°25' E 121°30'0 0.0
2017-Aug-23 18:27N 31°25' E 121°30'0 0.0
2017-Aug-23 17:59N 31°25' E 121°30'1 2.1
2017-Aug-23 17:29N 31°25' E 121°31'510.0
2017-Aug-23 17:00N 31°23' E 121°36'611.4
2017-Aug-23 16:30N 31°20' E 121°42'611.7
2017-Aug-23 16:00N 31°17' E 121°49'  
2017-Aug-20 18:35N 31°05' E 122°41'217.1
2017-Aug-20 18:29N 31°05' E 122°39'815.5
2017-Aug-20 17:59N 31°05' E 122°30'612.6
2017-Aug-20 17:30N 31°06' E 122°23'714.7
2017-Aug-20 17:00N 31°08' E 122°15'815.1
2017-Aug-20 16:30N 31°13' E 122°08'714.6
2017-Aug-20 16:00N 31°15' E 121°60'714.1
2017-Aug-20 15:30N 31°16' E 121°52'713.1
2017-Aug-20 15:00N 31°19' E 121°45'611.7
2017-Aug-20 14:30N 31°21' E 121°38'4 8.3
2017-Aug-20 14:00N 31°23' E 121°34'3 6.6
2017-Aug-20 13:30N 31°25' E 121°31'1 0.7
2017-Aug-20 12:44N 31°25' E 121°30'0 0.0
2017-Aug-20 12:26N 31°25' E 121°30'0 0.0
2017-Aug-20 11:53N 31°25' E 121°30'0 0.0
2017-Aug-20 11:26N 31°25' E 121°30'0 0.0
2017-Aug-20 10:59N 31°25' E 121°30'0 0.0
2017-Aug-20 10:26N 31°25' E 121°30'0 0.0
2017-Aug-20 09:56N 31°25' E 121°30'0 0.0
2017-Aug-20 09:26N 31°25' E 121°30'0 0.0
2017-Aug-20 08:56N 31°25' E 121°30'0 0.0
2017-Aug-20 08:29N 31°25' E 121°30'0 0.0
2017-Aug-20 07:56N 31°25' E 121°30'0 0.0
2017-Aug-20 07:20N 31°25' E 121°30'0 0.0
2017-Aug-20 06:56N 31°25' E 121°30'0 0.0
2017-Aug-20 06:26N 31°25' E 121°30'0 0.0
2017-Aug-20 05:59N 31°25' E 121°30'0 0.0
2017-Aug-20 05:29N 31°25' E 121°30'0 0.0
2017-Aug-20 04:56N 31°25' E 121°30'0 0.0
2017-Aug-20 04:23N 31°25' E 121°30'0 0.0
2017-Aug-20 03:56N 31°25' E 121°30'0 0.0
2017-Aug-20 03:29N 31°25' E 121°30'0 0.0
2017-Aug-20 02:56N 31°25' E 121°30'0 0.0
2017-Aug-20 02:29N 31°25' E 121°30'0 0.0
2017-Aug-20 01:59N 31°25' E 121°30'0 0.0
2017-Aug-20 01:23N 31°25' E 121°30'0 0.0
2017-Aug-20 00:59N 31°25' E 121°30'0 0.0
2017-Aug-20 00:29N 31°25' E 121°30'0 0.1
2017-Aug-20 00:00N 31°25' E 121°30'2 4.7
2017-Aug-19 23:30N 31°24' E 121°33'510.5
2017-Aug-19 23:00N 31°22' E 121°38'510.9
2017-Aug-19 22:30N 31°19' E 121°44'611.1
2017-Aug-19 22:00N 31°17' E 121°50'713.7
2017-Aug-19 21:30N 31°15' E 121°58'713.4
2017-Aug-19 21:00N 31°14' E 122°05'713.4
2017-Aug-19 20:30N 31°10' E 122°12'713.4
2017-Aug-19 20:00N 31°06' E 122°18'612.4
2017-Aug-19 19:30N 31°06' E 122°25'3 6.3
2017-Aug-19 19:00N 31°07' E 122°29'2711.5
2017-Aug-19 16:40N 31°15' E 122°59'1013.4
2017-Aug-19 15:55N 31°19' E 123°10'813.5
2017-Aug-19 15:19N 31°22' E 123°19'  
2017-Aug-15 13:06N 31°04' E 122°34'113.7
2017-Aug-15 13:00N 31°04' E 122°32'612.3
2017-Aug-15 12:30N 31°06' E 122°25'714.0
2017-Aug-15 12:00N 31°07' E 122°17'815.1
2017-Aug-15 11:31N 31°11' E 122°10'713.3
2017-Aug-15 11:00N 31°14' E 122°03'714.2
2017-Aug-15 10:30N 31°15' E 121°55'713.4
2017-Aug-15 10:01N 31°18' E 121°48'612.3
2017-Aug-15 09:30N 31°20' E 121°41'611.5
2017-Aug-15 09:00N 31°23' E 121°35'5 9.3
2017-Aug-15 08:30N 31°25' E 121°30'0 0.2
2017-Aug-15 07:57N 31°25' E 121°30'0 0.0
2017-Aug-15 07:24N 31°25' E 121°30'0 0.0
2017-Aug-15 07:00N 31°25' E 121°30'0 0.0
2017-Aug-15 06:30N 31°25' E 121°30'0 0.0
2017-Aug-15 06:00N 31°25' E 121°30'0 0.0
2017-Aug-15 05:30N 31°25' E 121°30'0 0.0
2017-Aug-15 05:00N 31°25' E 121°30'0 0.0
2017-Aug-15 04:30N 31°25' E 121°30'0 0.0
2017-Aug-15 04:00N 31°25' E 121°30'0 0.0
2017-Aug-15 03:30N 31°25' E 121°30'0 0.0
2017-Aug-15 03:00N 31°25' E 121°30'0 0.0
2017-Aug-15 02:24N 31°25' E 121°30'0 0.0
2017-Aug-15 02:00N 31°25' E 121°30'0 0.0
2017-Aug-15 01:30N 31°25' E 121°30'0 0.0
2017-Aug-15 01:00N 31°25' E 121°30'0 0.0
2017-Aug-15 00:27N 31°25' E 121°30'0 0.0
2017-Aug-15 00:00N 31°25' E 121°30'0 0.0
2017-Aug-14 23:30N 31°25' E 121°30'0 0.0
2017-Aug-14 23:00N 31°25' E 121°30'0 0.0
2017-Aug-14 22:27N 31°25' E 121°30'0 0.0
2017-Aug-14 22:00N 31°25' E 121°30'0 0.0
2017-Aug-14 21:30N 31°25' E 121°30'0 0.0
2017-Aug-14 21:00N 31°25' E 121°30'1 2.7
2017-Aug-14 20:30N 31°25' E 121°32'4 8.3
2017-Aug-14 20:00N 31°23' E 121°36'611.4
2017-Aug-14 19:30N 31°20' E 121°42'5 9.5
2017-Aug-14 19:00N 31°18' E 121°47'510.2
2017-Aug-14 18:30N 31°16' E 121°52'510.0
2017-Aug-14 18:00N 31°15' E 121°58'510.8
2017-Aug-14 17:30N 31°14' E 122°04'611.6
2017-Aug-14 17:00N 31°11' E 122°10'5 9.7
2017-Aug-14 16:30N 31°08' E 122°15'510.7
2017-Aug-14 16:00N 31°06' E 122°21'510.6
2017-Aug-14 15:30N 31°07' E 122°27'5 9.5
2017-Aug-14 15:00N 31°07' E 122°32'712.8
2017-Aug-14 14:29N 31°07' E 122°40'613.3
2017-Aug-14 14:00N 31°05' E 122°47'611.9
2017-Aug-14 13:30N 31°03' E 122°53'612.4
2017-Aug-14 13:00N 30°60' E 122°60'713.0
2017-Aug-14 12:30N 30°55' E 123°06'713.0
2017-Aug-14 11:59N 30°52' E 123°12'612.9
2017-Aug-14 11:30N 30°47' E 123°17'812.7
2017-Aug-14 10:53N 30°40' E 123°20'1711.8
2017-Aug-14 09:28N 30°30' E 123°36'612.0
2017-Aug-14 09:00N 30°26' E 123°41'2612.6
2017-Aug-14 06:55N 30°07' E 124°02'  
Track history (hours):
 
Tides and Currents Weather Stations Pressure Air Temp Water Temp Dewpoint Dewpoint Depression Visibility Wind Speed Wind Dir Waves Ship Positions

Mariner Of The Seas

Operator: Royal Caribbean Cruises Ltd

Last reported at 2017-Aug-24 00:57 UTC. Time now 2017-Aug-24 01:11 UTC.
Position N 31°25' E 121°30'.

Type: Passenger vessel. MMSI: 311493000.

Date/timePositionNaut miles runAvg speedWind from/ knotsBaromVisibWave heightAir tempDewpointWater temp
2017-Aug-24 00:57N 31°25' E 121°30'0 0.0
2017-Aug-24 00:27N 31°25' E 121°30'0 0.0
2017-Aug-23 23:57N 31°25' E 121°30'0 0.0
2017-Aug-23 23:21N 31°25' E 121°30'0 0.0
2017-Aug-23 21:33N 31°25' E 121°30'0 0.0
2017-Aug-23 21:15N 31°25' E 121°30'0 0.0
2017-Aug-23 20:57N 31°25' E 121°30'0 0.0
2017-Aug-23 20:27N 31°25' E 121°30'0 0.0
2017-Aug-23 19:57N 31°25' E 121°30'0 0.0
2017-Aug-23 19:15N 31°25' E 121°30'0 0.0
2017-Aug-23 18:57N 31°25' E 121°30'0 0.0
2017-Aug-23 18:27N 31°25' E 121°30'0 0.0
2017-Aug-23 17:59N 31°25' E 121°30'1 2.1
2017-Aug-23 17:29N 31°25' E 121°31'510.0
2017-Aug-23 17:00N 31°23' E 121°36'611.4
2017-Aug-23 16:30N 31°20' E 121°42'611.7
2017-Aug-23 16:00N 31°17' E 121°49'  
2017-Aug-20 18:35N 31°05' E 122°41'217.1
2017-Aug-20 18:29N 31°05' E 122°39'815.5
2017-Aug-20 17:59N 31°05' E 122°30'612.6
2017-Aug-20 17:30N 31°06' E 122°23'714.7
2017-Aug-20 17:00N 31°08' E 122°15'815.1
2017-Aug-20 16:30N 31°13' E 122°08'714.6
2017-Aug-20 16:00N 31°15' E 121°60'714.1
2017-Aug-20 15:30N 31°16' E 121°52'713.1
2017-Aug-20 15:00N 31°19' E 121°45'611.7
2017-Aug-20 14:30N 31°21' E 121°38'4 8.3
2017-Aug-20 14:00N 31°23' E 121°34'3 6.6
2017-Aug-20 13:30N 31°25' E 121°31'1 0.7
2017-Aug-20 12:44N 31°25' E 121°30'0 0.0
2017-Aug-20 12:26N 31°25' E 121°30'0 0.0
2017-Aug-20 11:53N 31°25' E 121°30'0 0.0
2017-Aug-20 11:26N 31°25' E 121°30'0 0.0
2017-Aug-20 10:59N 31°25' E 121°30'0 0.0
2017-Aug-20 10:26N 31°25' E 121°30'0 0.0
2017-Aug-20 09:56N 31°25' E 121°30'0 0.0
2017-Aug-20 09:26N 31°25' E 121°30'0 0.0
2017-Aug-20 08:56N 31°25' E 121°30'0 0.0
2017-Aug-20 08:29N 31°25' E 121°30'0 0.0
2017-Aug-20 07:56N 31°25' E 121°30'0 0.0
2017-Aug-20 07:20N 31°25' E 121°30'0 0.0
2017-Aug-20 06:56N 31°25' E 121°30'0 0.0
2017-Aug-20 06:26N 31°25' E 121°30'0 0.0
2017-Aug-20 05:59N 31°25' E 121°30'0 0.0
2017-Aug-20 05:29N 31°25' E 121°30'0 0.0
2017-Aug-20 04:56N 31°25' E 121°30'0 0.0
2017-Aug-20 04:23N 31°25' E 121°30'0 0.0
2017-Aug-20 03:56N 31°25' E 121°30'0 0.0
2017-Aug-20 03:29N 31°25' E 121°30'0 0.0
2017-Aug-20 02:56N 31°25' E 121°30'0 0.0
2017-Aug-20 02:29N 31°25' E 121°30'0 0.0
2017-Aug-20 01:59N 31°25' E 121°30'0 0.0
2017-Aug-20 01:23N 31°25' E 121°30'0 0.0
2017-Aug-20 00:59N 31°25' E 121°30'0 0.0
2017-Aug-20 00:29N 31°25' E 121°30'0 0.1
2017-Aug-20 00:00N 31°25' E 121°30'2 4.7
2017-Aug-19 23:30N 31°24' E 121°33'510.5
2017-Aug-19 23:00N 31°22' E 121°38'510.9
2017-Aug-19 22:30N 31°19' E 121°44'611.1
2017-Aug-19 22:00N 31°17' E 121°50'713.7
2017-Aug-19 21:30N 31°15' E 121°58'713.4
2017-Aug-19 21:00N 31°14' E 122°05'713.4
2017-Aug-19 20:30N 31°10' E 122°12'713.4
2017-Aug-19 20:00N 31°06' E 122°18'612.4
2017-Aug-19 19:30N 31°06' E 122°25'3 6.3
2017-Aug-19 19:00N 31°07' E 122°29'2711.5
2017-Aug-19 16:40N 31°15' E 122°59'1013.4
2017-Aug-19 15:55N 31°19' E 123°10'813.5
2017-Aug-19 15:19N 31°22' E 123°19'  
2017-Aug-15 13:06N 31°04' E 122°34'113.7
2017-Aug-15 13:00N 31°04' E 122°32'612.3
2017-Aug-15 12:30N 31°06' E 122°25'714.0
2017-Aug-15 12:00N 31°07' E 122°17'815.1
2017-Aug-15 11:31N 31°11' E 122°10'713.3
2017-Aug-15 11:00N 31°14' E 122°03'714.2
2017-Aug-15 10:30N 31°15' E 121°55'713.4
2017-Aug-15 10:01N 31°18' E 121°48'612.3
2017-Aug-15 09:30N 31°20' E 121°41'611.5
2017-Aug-15 09:00N 31°23' E 121°35'5 9.3
2017-Aug-15 08:30N 31°25' E 121°30'0 0.2
2017-Aug-15 07:57N 31°25' E 121°30'0 0.0
2017-Aug-15 07:24N 31°25' E 121°30'0 0.0
2017-Aug-15 07:00N 31°25' E 121°30'0 0.0
2017-Aug-15 06:30N 31°25' E 121°30'0 0.0
2017-Aug-15 06:00N 31°25' E 121°30'0 0.0
2017-Aug-15 05:30N 31°25' E 121°30'0 0.0
2017-Aug-15 05:00N 31°25' E 121°30'0 0.0
2017-Aug-15 04:30N 31°25' E 121°30'0 0.0
2017-Aug-15 04:00N 31°25' E 121°30'0 0.0
2017-Aug-15 03:30N 31°25' E 121°30'0 0.0
2017-Aug-15 03:00N 31°25' E 121°30'0 0.0
2017-Aug-15 02:24N 31°25' E 121°30'0 0.0
2017-Aug-15 02:00N 31°25' E 121°30'0 0.0
2017-Aug-15 01:30N 31°25' E 121°30'0 0.0
2017-Aug-15 01:00N 31°25' E 121°30'0 0.0
2017-Aug-15 00:27N 31°25' E 121°30'0 0.0
2017-Aug-15 00:00N 31°25' E 121°30'0 0.0
2017-Aug-14 23:30N 31°25' E 121°30'0 0.0
2017-Aug-14 23:00N 31°25' E 121°30'0 0.0
2017-Aug-14 22:27N 31°25' E 121°30'0 0.0
2017-Aug-14 22:00N 31°25' E 121°30'0 0.0
2017-Aug-14 21:30N 31°25' E 121°30'0 0.0
2017-Aug-14 21:00N 31°25' E 121°30'1 2.7
2017-Aug-14 20:30N 31°25' E 121°32'4 8.3
2017-Aug-14 20:00N 31°23' E 121°36'611.4
2017-Aug-14 19:30N 31°20' E 121°42'5 9.5
2017-Aug-14 19:00N 31°18' E 121°47'510.2
2017-Aug-14 18:30N 31°16' E 121°52'510.0
2017-Aug-14 18:00N 31°15' E 121°58'510.8
2017-Aug-14 17:30N 31°14' E 122°04'611.6
2017-Aug-14 17:00N 31°11' E 122°10'5 9.7
2017-Aug-14 16:30N 31°08' E 122°15'510.7
2017-Aug-14 16:00N 31°06' E 122°21'510.6
2017-Aug-14 15:30N 31°07' E 122°27'5 9.5
2017-Aug-14 15:00N 31°07' E 122°32'712.8
2017-Aug-14 14:29N 31°07' E 122°40'613.3
2017-Aug-14 14:00N 31°05' E 122°47'611.9
2017-Aug-14 13:30N 31°03' E 122°53'612.4
2017-Aug-14 13:00N 30°60' E 122°60'713.0
2017-Aug-14 12:30N 30°55' E 123°06'713.0
2017-Aug-14 11:59N 30°52' E 123°12'612.9
2017-Aug-14 11:30N 30°47' E 123°17'812.7
2017-Aug-14 10:53N 30°40' E 123°20'1711.8
2017-Aug-14 09:28N 30°30' E 123°36'612.0
2017-Aug-14 09:00N 30°26' E 123°41'2612.6
2017-Aug-14 06:55N 30°07' E 124°02'  

Dump ship's entire track history